createdAt,value
2022-10-12T00:00:21.570Z,36.47
2022-10-12T00:03:08.587Z,33.28
2022-10-12T00:05:35.497Z,37.63
2022-10-12T00:08:02.600Z,36.15
2022-10-12T00:10:29.510Z,31.38
2022-10-12T00:12:56.789Z,30.77
2022-10-12T00:15:24.085Z,38.42
2022-10-12T00:17:51.054Z,41.75
2022-10-12T00:20:17.960Z,40.80
2022-10-12T00:22:45.065Z,32.75
2022-10-12T00:25:11.881Z,37.20
2022-10-12T00:27:39.119Z,35.05
2022-10-12T00:30:07.075Z,35.17
2022-10-12T00:32:33.966Z,33.80
2022-10-12T00:35:00.967Z,38.38
2022-10-12T00:37:28.163Z,35.70
2022-10-12T00:39:55.266Z,32.53
2022-10-12T00:42:22.280Z,38.47
2022-10-12T00:44:50.869Z,36.40
2022-10-12T00:47:34.118Z,41.05
2022-10-12T00:50:04.351Z,34.03
2022-10-12T00:52:59.338Z,31.40
2022-10-12T00:55:30.304Z,41.53
2022-10-12T00:57:58.146Z,34.50
2022-10-12T01:00:26.157Z,35.33
2022-10-12T01:02:54.928Z,41.45
2022-10-12T01:05:23.096Z,32.55
2022-10-12T01:07:50.478Z,39.42
2022-10-12T01:10:18.169Z,41.45
2022-10-12T01:12:49.424Z,37.08
2022-10-12T01:15:16.879Z,32.67
2022-10-12T01:18:02.745Z,38.03
2022-10-12T01:20:41.762Z,38.22
2022-10-12T01:23:18.890Z,38.00
2022-10-12T01:26:07.582Z,34.95
2022-10-12T01:28:45.895Z,33.55
2022-10-12T01:31:44.236Z,31.42
2022-10-12T01:34:37.405Z,38.00
2022-10-12T01:37:21.904Z,33.92
2022-10-12T01:39:59.061Z,38.67
2022-10-12T01:42:33.024Z,32.10
2022-10-12T01:45:09.417Z,34.72
2022-10-12T01:47:39.987Z,37.00
2022-10-12T01:50:11.105Z,32.67
2022-10-12T01:53:07.401Z,36.05
2022-10-12T01:55:42.488Z,38.67
2022-10-12T01:58:15.667Z,39.63
2022-10-12T02:01:09.187Z,33.45
2022-10-12T02:03:45.396Z,34.13
2022-10-12T02:06:16.886Z,32.55
2022-10-12T02:09:02.643Z,33.88
2022-10-12T02:11:34.005Z,28.38
2022-10-12T02:14:16.946Z,27.83
2022-10-12T02:16:49.842Z,37.65
2022-10-12T02:19:22.050Z,33.63
2022-10-12T02:21:50.678Z,39.67
2022-10-12T02:24:18.945Z,28.80
2022-10-12T02:26:49.912Z,32.97
2022-10-12T02:29:25.990Z,37.33
2022-10-12T02:32:00.240Z,37.75
2022-10-12T02:34:36.360Z,39.75
2022-10-12T02:37:12.103Z,43.65
2022-10-12T02:39:49.794Z,34.55
2022-10-12T02:42:27.209Z,42.70
2022-10-12T02:44:58.433Z,34.22
2022-10-12T02:47:28.841Z,37.17
2022-10-12T02:49:56.694Z,29.58
2022-10-12T02:52:24.707Z,38.08
2022-10-12T02:54:51.792Z,35.60
2022-10-12T02:57:18.693Z,35.20
2022-10-12T02:59:45.716Z,38.78
2022-10-12T03:02:12.875Z,40.72
2022-10-12T03:04:39.748Z,37.90
2022-10-12T03:07:06.609Z,33.53
2022-10-12T03:09:33.661Z,32.83
2022-10-12T03:12:00.667Z,40.90
2022-10-12T03:14:27.701Z,33.65
2022-10-12T03:16:54.922Z,41.58
2022-10-12T03:19:21.823Z,34.38
2022-10-12T03:21:48.881Z,32.17
2022-10-12T03:24:16.024Z,32.13
2022-10-12T03:26:42.908Z,32.28
2022-10-12T03:29:09.870Z,32.42
2022-10-12T03:31:36.967Z,38.83
2022-10-12T03:34:04.151Z,36.05
2022-10-12T03:36:31.245Z,31.85
2022-10-12T03:38:58.536Z,38.00
2022-10-12T03:41:25.397Z,29.45
2022-10-12T03:43:52.512Z,31.58
2022-10-12T03:46:19.349Z,31.48
2022-10-12T03:48:47.148Z,35.40
2022-10-12T03:51:14.071Z,30.17
2022-10-12T03:53:45.404Z,31.58
2022-10-12T03:56:12.964Z,27.88
2022-10-12T03:58:40.159Z,35.75
2022-10-12T04:01:07.183Z,32.63
2022-10-12T04:03:34.340Z,34.88
2022-10-12T04:06:01.210Z,32.20
2022-10-12T04:08:28.595Z,30.38
2022-10-12T04:10:56.157Z,34.90
2022-10-12T04:13:23.447Z,32.78
2022-10-12T04:15:50.936Z,31.45
2022-10-12T04:18:18.309Z,36.80
2022-10-12T04:20:48.589Z,31.17
2022-10-12T04:23:15.769Z,32.97
2022-10-12T04:25:42.964Z,33.03
2022-10-12T04:28:10.044Z,33.03
2022-10-12T04:30:36.940Z,29.50
2022-10-12T04:33:04.697Z,32.67
2022-10-12T04:35:32.095Z,29.13
2022-10-12T04:37:59.630Z,30.63
2022-10-12T04:40:26.521Z,34.20
2022-10-12T04:42:53.657Z,31.15
2022-10-12T04:45:20.781Z,28.50
2022-10-12T04:47:48.320Z,35.67
2022-10-12T04:50:15.418Z,30.80
2022-10-12T04:52:42.754Z,24.33
2022-10-12T04:55:09.904Z,29.98
2022-10-12T04:57:37.365Z,33.53
2022-10-12T05:00:06.130Z,29.55
2022-10-12T05:02:33.584Z,28.83
2022-10-12T05:05:00.867Z,33.25
2022-10-12T05:07:28.346Z,33.80
2022-10-12T05:09:55.569Z,30.00
2022-10-12T05:12:23.061Z,29.15
2022-10-12T05:14:50.171Z,29.38
2022-10-12T05:17:17.134Z,28.33
2022-10-12T05:19:44.279Z,35.53
2022-10-12T05:22:11.375Z,33.20
2022-10-12T05:24:38.584Z,37.90
2022-10-12T05:27:05.749Z,28.92
2022-10-12T05:29:32.980Z,33.17
2022-10-12T05:31:59.958Z,40.30
2022-10-12T05:34:27.113Z,38.65
2022-10-12T05:36:53.996Z,43.22
2022-10-12T05:39:21.254Z,37.10
2022-10-12T05:41:48.122Z,38.95
2022-10-12T05:44:15.160Z,37.45
2022-10-12T05:46:42.471Z,40.53
2022-10-12T05:49:09.581Z,42.33
2022-10-12T05:51:38.765Z,37.40
2022-10-12T05:54:05.920Z,33.70
2022-10-12T05:56:33.050Z,34.90
2022-10-12T05:59:00.205Z,38.85
2022-10-12T06:01:27.250Z,31.98
2022-10-12T06:03:55.100Z,30.25
2022-10-12T06:06:23.016Z,30.88
2022-10-12T06:08:50.158Z,33.40
2022-10-12T06:11:17.137Z,33.75
2022-10-12T06:13:44.378Z,34.15
2022-10-12T06:16:11.461Z,37.03
2022-10-12T06:18:39.058Z,37.60
2022-10-12T06:21:28.892Z,31.63
2022-10-12T06:23:53.802Z,35.38
2022-10-12T06:26:24.990Z,37.80
2022-10-12T06:28:52.413Z,36.28
2022-10-12T06:31:19.417Z,30.92
2022-10-12T06:33:46.497Z,31.63
2022-10-12T06:36:13.606Z,35.78
2022-10-12T06:38:40.693Z,35.83
2022-10-12T06:41:07.949Z,37.60
2022-10-12T06:43:35.151Z,37.35
2022-10-12T06:46:02.889Z,33.17
2022-10-12T06:48:30.679Z,36.08
2022-10-12T06:50:58.254Z,30.92
2022-10-12T06:53:28.765Z,34.95
2022-10-12T06:55:55.780Z,39.92
2022-10-12T06:58:23.202Z,37.47
2022-10-12T07:00:50.129Z,38.45
2022-10-12T07:03:17.769Z,35.50
2022-10-12T07:05:44.832Z,35.75
2022-10-12T07:08:12.007Z,44.28
2022-10-12T07:10:39.100Z,49.78
2022-10-12T07:13:06.377Z,38.28
2022-10-12T07:15:33.693Z,43.28
2022-10-12T07:18:00.870Z,35.70
2022-10-12T07:20:27.800Z,41.75
2022-10-12T07:22:54.944Z,41.90
2022-10-12T07:25:22.409Z,40.17
2022-10-12T07:27:49.683Z,45.05
2022-10-12T07:30:16.838Z,34.00
2022-10-12T07:32:46.127Z,35.03
2022-10-12T07:35:13.165Z,39.20
2022-10-12T07:37:40.863Z,31.58
2022-10-12T07:40:08.636Z,28.85
2022-10-12T07:42:35.565Z,33.63
2022-10-12T07:45:02.695Z,43.05
2022-10-12T07:47:29.734Z,31.25
2022-10-12T07:49:57.318Z,31.33
2022-10-12T07:52:24.277Z,32.97
2022-10-12T07:54:51.374Z,27.15
2022-10-12T07:57:18.601Z,33.83
2022-10-12T07:59:46.711Z,29.55
2022-10-12T08:02:13.951Z,29.90
2022-10-12T08:04:41.399Z,27.13
2022-10-12T08:07:08.372Z,28.60
2022-10-12T08:09:36.321Z,34.47
2022-10-12T08:12:04.238Z,33.47
2022-10-12T08:14:31.624Z,24.45
2022-10-12T08:16:58.665Z,28.88
2022-10-12T08:19:25.958Z,28.67
2022-10-12T08:21:52.987Z,29.15
2022-10-12T08:24:20.268Z,35.63
2022-10-12T08:26:47.172Z,27.73
2022-10-12T08:29:14.483Z,36.95
2022-10-12T08:31:41.494Z,29.88
2022-10-12T08:34:08.693Z,35.60
2022-10-12T08:36:35.661Z,33.60
2022-10-12T08:39:06.770Z,34.90
2022-10-12T08:41:45.715Z,36.97
2022-10-12T08:44:20.091Z,29.92
2022-10-12T08:46:47.837Z,29.77
2022-10-12T08:49:18.769Z,29.48
2022-10-12T08:51:53.789Z,22.77
2022-10-12T08:54:23.412Z,18.83
2022-10-12T08:56:54.300Z,20.95
2022-10-12T08:59:22.828Z,20.15
2022-10-12T09:02:00.548Z,18.13
2022-10-12T09:04:42.925Z,26.42
2022-10-12T09:07:24.620Z,13.63
2022-10-12T09:09:51.894Z,13.23
2022-10-12T09:12:31.456Z,18.58
2022-10-12T09:15:04.136Z,11.98
2022-10-12T09:17:44.016Z,9.18
2022-10-12T09:20:32.295Z,17.83
2022-10-12T09:23:12.344Z,7.68
2022-10-12T09:25:40.318Z,19.48
2022-10-12T09:28:37.765Z,17.52
2022-10-12T09:31:10.918Z,16.50
2022-10-12T09:33:48.118Z,19.10
2022-10-12T09:36:20.509Z,9.57
2022-10-12T09:38:49.753Z,11.30
2022-10-12T09:41:22.379Z,9.85
2022-10-12T09:43:55.486Z,12.10
2022-10-12T09:46:40.153Z,8.93
2022-10-12T09:49:07.330Z,11.23
2022-10-12T09:51:35.592Z,8.80
2022-10-12T09:54:04.527Z,7.00
2022-10-12T09:56:44.586Z,9.73
2022-10-12T09:59:33.158Z,9.48
2022-10-12T10:02:20.198Z,7.65
2022-10-12T10:04:49.240Z,6.95
2022-10-12T10:07:31.415Z,10.20
2022-10-12T10:10:29.761Z,11.85
2022-10-12T10:13:03.102Z,10.60
2022-10-12T10:15:35.808Z,9.10
2022-10-12T10:18:08.014Z,10.48
2022-10-12T10:20:59.018Z,9.85
2022-10-12T10:23:32.758Z,8.50
2022-10-12T10:26:08.092Z,10.43
2022-10-12T10:28:37.864Z,11.93
2022-10-12T10:31:17.163Z,11.45
2022-10-12T10:33:44.502Z,11.63
2022-10-12T10:36:18.596Z,11.02
2022-10-12T10:39:01.100Z,8.35
2022-10-12T10:41:36.860Z,15.02
2022-10-12T10:44:05.599Z,8.73
2022-10-12T10:46:36.482Z,11.88
2022-10-12T10:49:07.538Z,11.77
2022-10-12T10:51:46.913Z,10.55
2022-10-12T10:54:41.145Z,10.00
2022-10-12T10:57:19.063Z,9.55
2022-10-12T11:00:02.177Z,12.98
2022-10-12T11:03:01.268Z,16.02
2022-10-12T11:05:48.453Z,8.20
2022-10-12T11:08:43.735Z,10.13
2022-10-12T11:11:23.642Z,8.25
2022-10-12T11:14:00.705Z,6.38
2022-10-12T11:16:34.475Z,14.88
2022-10-12T11:19:21.139Z,9.40
2022-10-12T11:21:55.651Z,8.60
2022-10-12T11:25:03.165Z,9.93
2022-10-12T11:27:34.694Z,10.27
2022-10-12T11:30:10.160Z,11.73
2022-10-12T11:32:51.361Z,14.68
2022-10-12T11:35:32.513Z,12.02
2022-10-12T11:38:05.273Z,16.20
2022-10-12T11:43:36.143Z,13.15
2022-10-12T11:46:08.206Z,7.93
2022-10-12T11:48:45.007Z,16.58
2022-10-12T11:51:12.493Z,11.80
2022-10-12T11:53:56.759Z,9.15
2022-10-12T11:56:31.816Z,16.80
2022-10-12T11:59:05.567Z,8.32
2022-10-12T12:02:13.989Z,10.75
2022-10-12T12:04:46.192Z,8.63
2022-10-12T12:07:43.514Z,13.80
2022-10-12T12:10:31.231Z,8.52
2022-10-12T12:13:13.402Z,6.97
2022-10-12T12:15:43.305Z,13.10
2022-10-12T12:18:17.437Z,9.55
2022-10-12T12:20:44.363Z,9.05
2022-10-12T12:23:35.907Z,9.77
2022-10-12T12:26:28.635Z,14.48
2022-10-12T12:29:20.306Z,7.05
2022-10-12T12:31:56.346Z,7.72
2022-10-12T12:34:23.735Z,5.93
2022-10-12T12:36:52.190Z,7.55
2022-10-12T12:39:30.704Z,5.03
2022-10-12T12:42:04.282Z,6.18
2022-10-12T12:44:37.377Z,7.85
2022-10-12T12:47:20.531Z,10.32
2022-10-12T12:50:01.216Z,11.38
2022-10-12T12:52:39.892Z,5.50
2022-10-12T12:55:16.437Z,11.68
2022-10-12T12:58:13.976Z,12.52
2022-10-12T13:01:05.276Z,5.90
2022-10-12T13:03:56.665Z,8.90
2022-10-12T13:06:39.111Z,8.77
2022-10-12T13:09:29.596Z,8.55
2022-10-12T13:12:41.705Z,5.28
2022-10-12T13:15:36.596Z,5.93
2022-10-12T13:18:45.294Z,7.07
2022-10-12T13:21:25.174Z,5.63
2022-10-12T13:24:18.609Z,4.57
2022-10-12T13:26:48.778Z,4.68
2022-10-12T13:29:39.743Z,9.02
2022-10-12T13:32:18.676Z,4.22
2022-10-12T13:34:49.441Z,8.75
2022-10-12T13:37:17.015Z,6.70
2022-10-12T13:39:47.099Z,5.68
2022-10-12T13:42:21.261Z,6.10
2022-10-12T13:44:48.815Z,8.90
2022-10-12T13:47:26.809Z,8.20
2022-10-12T13:49:54.994Z,7.05
2022-10-12T13:52:32.604Z,9.70
2022-10-12T13:55:01.740Z,11.95
2022-10-12T13:57:47.608Z,5.63
2022-10-12T14:00:26.298Z,5.78
2022-10-12T14:03:02.222Z,5.05
2022-10-12T14:05:31.594Z,7.30
2022-10-12T14:08:07.058Z,4.68
2022-10-12T14:10:37.245Z,10.32
2022-10-12T14:13:05.782Z,9.23
2022-10-12T14:15:38.822Z,6.90
2022-10-12T14:18:32.948Z,8.23
2022-10-12T14:21:15.420Z,5.93
2022-10-12T14:23:48.898Z,5.90
2022-10-12T14:26:32.470Z,9.00
2022-10-12T14:29:00.450Z,5.00
2022-10-12T14:31:48.802Z,7.28
2022-10-12T14:34:28.138Z,6.13
2022-10-12T14:37:10.379Z,5.75
2022-10-12T14:39:38.499Z,4.07
2022-10-12T14:42:28.472Z,4.88
2022-10-12T14:44:55.938Z,11.50
2022-10-12T14:47:26.980Z,6.80
2022-10-12T14:52:45.111Z,6.20
2022-10-12T14:55:16.634Z,8.93
2022-10-12T14:57:44.742Z,10.95
2022-10-12T15:00:22.747Z,9.27
2022-10-12T15:02:50.765Z,8.43
2022-10-12T15:05:21.466Z,10.52
2022-10-12T15:07:49.749Z,6.47
2022-10-12T15:10:19.778Z,8.13
2022-10-12T15:12:47.029Z,6.47
2022-10-12T15:15:46.836Z,7.13
2022-10-12T15:18:15.039Z,8.35
2022-10-12T15:20:46.750Z,3.97
2022-10-12T15:23:16.501Z,7.25
2022-10-12T15:25:56.399Z,8.57
2022-10-12T15:28:23.895Z,8.85
2022-10-12T15:31:15.783Z,9.07
2022-10-12T15:33:40.310Z,8.15
2022-10-12T15:36:07.666Z,8.20
2022-10-12T15:38:35.432Z,6.70
2022-10-12T15:41:03.051Z,6.63
2022-10-12T15:43:31.624Z,7.88
2022-10-12T15:45:59.501Z,4.78
2022-10-12T15:48:28.491Z,8.55
2022-10-12T15:50:55.736Z,16.83
2022-10-12T15:53:24.931Z,9.68
2022-10-12T15:55:56.055Z,15.05
2022-10-12T15:58:24.877Z,11.20
2022-10-12T16:00:52.675Z,10.57
2022-10-12T16:03:25.605Z,7.95
2022-10-12T16:05:53.598Z,12.07
2022-10-12T16:08:21.114Z,8.93
2022-10-12T16:10:48.563Z,7.38
2022-10-12T16:13:16.640Z,8.07
2022-10-12T16:15:44.349Z,9.50
2022-10-12T16:18:12.342Z,9.35
2022-10-12T16:20:41.445Z,8.50
2022-10-12T16:23:14.264Z,12.77
2022-10-12T16:25:41.466Z,9.15
2022-10-12T16:28:10.524Z,7.60
2022-10-12T16:30:40.059Z,9.88
2022-10-12T16:33:07.366Z,8.85
2022-10-12T16:35:35.397Z,13.93
2022-10-12T16:38:02.652Z,13.10
2022-10-12T16:40:29.811Z,7.35
2022-10-12T16:42:57.509Z,11.95
2022-10-12T16:45:25.692Z,7.47
2022-10-12T16:47:54.039Z,7.20
2022-10-12T16:50:23.624Z,14.85
2022-10-12T16:52:51.699Z,14.07
2022-10-12T16:55:19.720Z,12.60
2022-10-12T16:57:47.047Z,11.75
2022-10-12T17:00:17.239Z,11.02
2022-10-12T17:02:44.390Z,12.00
2022-10-12T17:05:11.650Z,12.90
2022-10-12T17:07:38.622Z,9.90
2022-10-12T17:10:06.392Z,11.15
2022-10-12T17:12:34.183Z,9.57
2022-10-12T17:15:01.417Z,12.68
2022-10-12T17:17:28.685Z,14.50
2022-10-12T17:19:56.428Z,13.57
2022-10-12T17:22:23.648Z,9.35
2022-10-12T17:24:50.862Z,9.98
2022-10-12T17:27:18.352Z,18.83
2022-10-12T17:29:46.369Z,13.50
2022-10-12T17:32:14.005Z,14.07
2022-10-12T17:34:44.940Z,15.45
2022-10-12T17:37:14.032Z,13.30
2022-10-12T17:39:44.769Z,13.35
2022-10-12T17:42:12.509Z,13.63
2022-10-12T17:44:40.496Z,9.13
2022-10-12T17:47:07.711Z,12.82
2022-10-12T17:49:35.307Z,14.73
2022-10-12T17:52:02.337Z,14.65
2022-10-12T17:54:29.750Z,9.85
2022-10-12T17:56:57.378Z,15.10
2022-10-12T17:59:25.184Z,9.15
2022-10-12T18:01:52.970Z,14.13
2022-10-12T18:04:20.544Z,12.20
2022-10-12T18:06:48.137Z,10.30
2022-10-12T18:09:18.360Z,11.18
2022-10-12T18:11:45.374Z,14.50
2022-10-12T18:14:13.379Z,13.10
2022-10-12T18:16:41.184Z,12.63
2022-10-12T18:19:11.445Z,12.93
2022-10-12T18:21:39.111Z,11.90
2022-10-12T18:24:12.288Z,14.55
2022-10-12T18:26:47.115Z,11.75
2022-10-12T18:29:18.281Z,10.63
2022-10-12T18:31:45.482Z,9.85
2022-10-12T18:34:12.494Z,9.43
2022-10-12T18:36:41.378Z,11.23
2022-10-12T18:39:08.747Z,11.57
2022-10-12T18:41:36.620Z,13.85
2022-10-12T18:44:03.780Z,12.23
2022-10-12T18:46:34.116Z,11.95
2022-10-12T18:49:05.596Z,18.55
2022-10-12T18:51:36.359Z,14.10
2022-10-12T18:54:04.220Z,14.97
2022-10-12T18:56:34.696Z,13.90
2022-10-12T18:59:02.773Z,12.18
2022-10-12T19:01:30.550Z,11.75
2022-10-12T19:03:59.790Z,15.98
2022-10-12T19:06:30.589Z,10.63
2022-10-12T19:08:58.846Z,15.07
2022-10-12T19:11:29.467Z,15.07
2022-10-12T19:14:04.800Z,21.75
2022-10-12T19:16:33.333Z,9.70
2022-10-12T19:19:07.898Z,21.90
2022-10-12T19:21:35.700Z,14.52
2022-10-12T19:24:04.212Z,14.00
2022-10-12T19:26:32.776Z,15.90
2022-10-12T19:29:00.532Z,20.70
2022-10-12T19:31:31.226Z,18.80
2022-10-12T19:34:00.676Z,17.55
2022-10-12T19:36:29.037Z,15.60
2022-10-12T19:38:57.533Z,14.40
2022-10-12T19:41:26.107Z,13.55
2022-10-12T19:43:53.933Z,14.05
2022-10-12T19:46:21.721Z,20.52
2022-10-12T19:48:50.638Z,22.02
2022-10-12T19:51:19.160Z,17.33
2022-10-12T19:53:47.045Z,16.73
2022-10-12T19:56:21.112Z,20.67
2022-10-12T19:58:50.119Z,19.75
2022-10-12T20:01:20.388Z,18.35
2022-10-12T20:03:50.134Z,20.15
2022-10-12T20:06:18.677Z,13.60
2022-10-12T20:08:47.381Z,18.15
2022-10-12T20:11:20.596Z,12.90
2022-10-12T20:13:51.806Z,15.05
2022-10-12T20:16:20.697Z,17.52
2022-10-12T20:18:49.570Z,16.85
2022-10-12T20:21:19.550Z,16.92
2022-10-12T20:23:48.006Z,16.10
2022-10-12T20:26:19.276Z,14.80
2022-10-12T20:28:46.862Z,14.65
2022-10-12T20:31:14.332Z,16.42
2022-10-12T20:33:41.606Z,15.45
2022-10-12T20:36:11.409Z,20.77
2022-10-12T20:38:38.910Z,15.10
2022-10-12T20:41:08.158Z,17.85
2022-10-12T20:43:41.724Z,14.60
2022-10-12T20:46:13.170Z,21.48
2022-10-12T20:51:10.598Z,16.30
2022-10-12T20:53:38.301Z,18.83
2022-10-12T20:56:06.538Z,16.77
2022-10-12T20:58:33.603Z,23.25
2022-10-12T21:01:09.608Z,15.95
2022-10-12T21:03:37.492Z,17.90
2022-10-12T21:06:07.192Z,15.07
2022-10-12T21:08:34.762Z,21.08
2022-10-12T21:11:02.389Z,25.67
2022-10-12T21:13:30.978Z,26.63
2022-10-12T21:15:58.576Z,21.40
2022-10-12T21:18:26.082Z,17.23
2022-10-12T21:21:08.866Z,21.30
2022-10-12T21:23:35.944Z,23.80
2022-10-12T21:26:14.770Z,22.42
2022-10-12T21:28:42.271Z,23.45
2022-10-12T21:31:09.791Z,24.58
2022-10-12T21:33:38.029Z,26.20
2022-10-12T21:36:10.319Z,23.38
2022-10-12T21:38:37.846Z,23.13
2022-10-12T21:41:06.233Z,26.40
2022-10-12T21:43:34.638Z,20.50
2022-10-12T21:46:07.638Z,19.60
2022-10-12T21:48:36.440Z,22.58
2022-10-12T21:51:05.119Z,23.60
2022-10-12T21:53:33.967Z,21.13
2022-10-12T21:56:07.803Z,25.00
2022-10-12T21:58:34.935Z,28.00
2022-10-12T22:01:11.005Z,22.10
2022-10-12T22:03:38.330Z,20.10
2022-10-12T22:06:06.616Z,19.33
2022-10-12T22:08:34.026Z,25.98
2022-10-12T22:11:10.328Z,20.20
2022-10-12T22:13:38.533Z,26.75
2022-10-12T22:16:09.442Z,25.58
2022-10-12T22:18:37.046Z,29.10
2022-10-12T22:21:13.319Z,21.23
2022-10-12T22:23:42.653Z,24.50
2022-10-12T22:26:13.246Z,24.70
2022-10-12T22:28:46.181Z,24.58
2022-10-12T22:31:15.940Z,26.75
2022-10-12T22:33:43.995Z,41.08
2022-10-12T22:36:13.147Z,21.98
2022-10-12T22:38:41.026Z,25.88
2022-10-12T22:41:14.428Z,24.25
2022-10-12T22:43:49.034Z,27.95
2022-10-12T22:46:17.184Z,27.30
2022-10-12T22:48:44.566Z,20.52
2022-10-12T22:51:18.222Z,27.30
2022-10-12T22:53:45.223Z,25.92
2022-10-12T22:56:17.517Z,28.10
2022-10-12T22:58:48.541Z,24.00
2022-10-12T23:01:17.407Z,26.73
2022-10-12T23:03:45.561Z,27.50
2022-10-12T23:06:15.973Z,27.88
2022-10-12T23:08:43.536Z,20.05
2022-10-12T23:11:13.339Z,23.52
2022-10-12T23:13:41.339Z,24.67
2022-10-12T23:16:15.728Z,24.52
2022-10-12T23:18:43.163Z,29.10
2022-10-12T23:21:12.560Z,21.20
2022-10-12T23:23:40.858Z,19.77
2022-10-12T23:26:11.496Z,24.30
2022-10-12T23:28:39.267Z,24.38
2022-10-12T23:31:13.268Z,20.77
2022-10-12T23:33:41.584Z,22.25
2022-10-12T23:36:12.470Z,24.63
2022-10-12T23:38:41.315Z,29.10
2022-10-12T23:41:09.003Z,26.63
2022-10-12T23:43:36.827Z,24.30
2022-10-12T23:46:05.203Z,22.10
2022-10-12T23:48:34.378Z,25.17
2022-10-12T23:51:01.289Z,25.40
2022-10-12T23:53:28.775Z,25.58
2022-10-12T23:55:56.066Z,28.75
2022-10-12T23:58:23.343Z,29.58
